Time;durP1;ratioP1;P1;durP2;ratioP2;P2;SDS_P1;SDS_P2;PMS_P1;PMS_P2;Temp;Humidity;BMP_temperature;BMP_pressure;BME280_temperature;BME280_humidity;BME280_pressure;Samples;Min_cycle;Max_cycle;Signal;HPM_P1;HPM_P2
2023/07/28 00:01:56;;;;;;;6.18;4.40;;;;;;;13.04;100.00;93450.00;4931544;29;20043;-66
2023/07/28 00:04:23;;;;;;;6.47;4.45;;;;;;;13.02;100.00;93441.41;4911858;29;20043;-67
2023/07/28 00:06:51;;;;;;;7.27;4.53;;;;;;;13.02;100.00;93441.41;4930182;29;20389;-66
2023/07/28 00:09:17;;;;;;;7.07;4.20;;;;;;;13.03;100.00;93440.97;4931402;29;20058;-65
2023/07/28 00:11:44;;;;;;;6.88;4.68;;;;;;;12.97;100.00;93446.28;4938351;29;20052;-66
2023/07/28 00:14:11;;;;;;;6.57;4.55;;;;;;;12.94;100.00;93444.41;4939316;29;20460;-66
2023/07/28 00:16:38;;;;;;;9.10;6.00;;;;;;;12.90;100.00;93430.00;4946232;29;20047;-66
2023/07/28 00:19:04;;;;;;;8.57;5.30;;;;;;;12.79;100.00;93438.56;4921608;29;20044;-66
2023/07/28 00:21:31;;;;;;;6.55;4.40;;;;;;;12.72;100.00;93435.28;4918602;29;20409;-67
2023/07/28 00:23:58;;;;;;;6.90;4.15;;;;;;;12.72;100.00;93430.56;4935847;29;20048;-65
2023/07/28 00:26:25;;;;;;;6.75;4.30;;;;;;;12.58;100.00;93426.25;4948681;28;20416;-66
2023/07/28 00:28:51;;;;;;;7.15;4.30;;;;;;;12.62;100.00;93426.16;4935112;29;20059;-67
2023/07/28 00:31:18;;;;;;;6.37;4.10;;;;;;;12.64;100.00;93426.47;4933267;29;20053;-66
2023/07/28 00:33:45;;;;;;;7.65;4.25;;;;;;;12.64;100.00;93409.97;4937649;29;20398;-65
2023/07/28 00:36:12;;;;;;;41.30;26.50;;;;;;;12.59;100.00;93421.50;4938536;29;20058;-66
2023/07/28 00:38:38;;;;;;;17.38;10.63;;;;;;;12.62;100.00;93414.38;4925224;29;20107;-66
2023/07/28 00:41:05;;;;;;;7.75;4.90;;;;;;;12.48;100.00;93416.34;4930067;29;20421;-66
2023/07/28 00:43:32;;;;;;;8.90;4.60;;;;;;;12.44;100.00;93409.41;4930390;29;20054;-66
2023/07/28 00:45:59;;;;;;;7.25;4.88;;;;;;;12.42;100.00;93412.59;4938185;29;20048;-67
2023/07/28 00:48:26;;;;;;;7.32;4.93;;;;;;;12.47;100.00;93412.03;4931004;29;20050;-66
2023/07/28 00:50:54;;;;;;;6.78;4.57;;;;;;;12.47;100.00;93405.78;4936377;29;20048;-66
2023/07/28 00:53:23;;;;;;;7.00;4.97;;;;;;;12.37;100.00;93413.13;4937610;29;20051;-66
2023/07/28 00:55:51;;;;;;;7.60;4.57;;;;;;;12.38;100.00;93406.44;4922195;29;20047;-65
2023/07/28 00:58:18;;;;;;;6.90;4.97;;;;;;;12.37;100.00;93404.88;4937769;29;20062;-66
2023/07/28 01:00:45;;;;;;;6.47;4.60;;;;;;;12.45;100.00;93405.44;4937866;29;20043;-66
2023/07/28 01:03:13;;;;;;;6.03;4.25;;;;;;;12.47;100.00;93398.28;4937570;29;20435;-66
2023/07/28 01:05:48;;;;;;;7.45;4.40;;;;;;;12.52;100.00;93399.72;4933123;29;20049;-66
2023/07/28 01:08:18;;;;;;;8.17;4.70;;;;;;;12.50;100.00;93399.41;4937256;29;20679;-66
2023/07/28 01:10:46;;;;;;;6.53;4.63;;;;;;;12.50;100.00;93388.38;4958928;28;20131;-66
2023/07/28 01:13:12;;;;;;;7.38;4.47;;;;;;;12.48;100.00;93386.06;4941258;29;20051;-66
2023/07/28 01:15:39;;;;;;;6.88;4.30;;;;;;;12.49;100.00;93395.09;4936279;29;20049;-66
2023/07/28 01:18:06;;;;;;;8.43;4.90;;;;;;;12.37;100.00;93386.41;4930525;29;20040;-66
2023/07/28 01:20:34;;;;;;;8.63;5.77;;;;;;;12.37;100.00;93393.88;4925510;29;20497;-66
2023/07/28 01:23:23;;;;;;;11.15;7.53;;;;;;;12.37;100.00;93393.88;4952520;29;20078;-67
2023/07/28 01:26:02;;;;;;;8.57;5.10;;;;;;;12.34;100.00;93390.03;4955061;28;21014;-66
2023/07/28 01:28:29;;;;;;;7.13;4.90;;;;;;;12.30;100.00;93394.09;4933313;29;20485;-65
2023/07/28 01:30:57;;;;;;;8.02;4.90;;;;;;;12.26;100.00;93393.44;4933302;29;20065;-66
2023/07/28 01:33:24;;;;;;;8.30;4.77;;;;;;;12.22;100.00;93390.78;4933040;29;20055;-66
2023/07/28 01:35:51;;;;;;;7.65;4.80;;;;;;;12.26;100.00;93393.44;4925038;29;20838;-67
2023/07/28 01:38:18;;;;;;;7.85;4.85;;;;;;;12.28;100.00;93382.78;4932982;29;20779;-66
2023/07/28 01:40:44;;;;;;;10.27;5.28;;;;;;;12.29;100.00;93398.81;4930370;29;20058;-66
2023/07/28 01:43:11;;;;;;;7.90;5.03;;;;;;;12.31;100.00;93390.91;4931651;29;20046;-67
2023/07/28 01:45:38;;;;;;;10.27;4.80;;;;;;;12.35;100.00;93396.28;4940315;29;20040;-66
2023/07/28 01:48:05;;;;;;;8.40;4.97;;;;;;;12.27;100.00;93390.22;4939346;29;20067;-66
2023/07/28 01:50:32;;;;;;;6.88;4.60;;;;;;;12.25;100.00;93406.41;4932252;29;20043;-68
2023/07/28 01:52:59;;;;;;;9.32;5.28;;;;;;;12.32;100.00;93402.69;4938919;29;20051;-65
2023/07/28 01:55:26;;;;;;;9.48;5.20;;;;;;;12.16;100.00;93406.31;4935347;29;20405;-67
2023/07/28 01:58:01;;;;;;;7.37;5.30;;;;;;;12.21;100.00;93407.72;4938732;29;20078;-66
2023/07/28 02:00:28;;;;;;;7.40;5.07;;;;;;;12.20;100.00;93404.22;4940110;29;20361;-66
2023/07/28 02:02:56;;;;;;;8.18;5.22;;;;;;;12.18;100.00;93409.38;4915173;29;20043;-66
2023/07/28 02:05:23;;;;;;;7.95;5.05;;;;;;;12.24;100.00;93409.63;4940272;29;20040;-66
2023/07/28 02:07:50;;;;;;;7.18;5.10;;;;;;;12.23;100.00;93405.31;4940374;29;20070;-67
2023/07/28 02:10:17;;;;;;;8.13;4.70;;;;;;;12.26;100.00;93409.94;4940055;29;20116;-66
2023/07/28 02:12:44;;;;;;;8.18;4.55;;;;;;;12.28;100.00;93402.78;4934911;29;20131;-67
2023/07/28 02:15:11;;;;;;;7.88;4.95;;;;;;;12.24;100.00;93406.88;4934461;29;20062;-65
2023/07/28 02:17:38;;;;;;;8.10;5.07;;;;;;;12.20;100.00;93401.47;4934917;28;20157;-66
2023/07/28 02:20:05;;;;;;;8.13;5.38;;;;;;;12.13;100.00;93418.97;4920902;29;20102;-66
2023/07/28 02:22:32;;;;;;;9.33;5.63;;;;;;;12.13;100.00;93409.91;4929897;29;20051;-65
2023/07/28 02:25:01;;;;;;;8.68;5.30;;;;;;;12.13;100.00;93407.97;4958340;28;20035;-67
2023/07/28 02:27:28;;;;;;;8.07;5.50;;;;;;;12.08;100.00;93414.00;4935353;28;20106;-67
2023/07/28 02:29:55;;;;;;;8.00;5.45;;;;;;;12.13;100.00;93418.16;4938238;29;20436;-66
2023/07/28 02:32:22;;;;;;;7.80;5.13;;;;;;;12.09;100.00;93421.03;4939846;29;20051;-67
2023/07/28 02:34:49;;;;;;;6.87;4.60;;;;;;;11.92;100.00;93431.34;4939904;29;20051;-66
2023/07/28 02:37:16;;;;;;;6.53;4.57;;;;;;;11.93;100.00;93435.63;4939752;29;20047;-66
2023/07/28 02:39:43;;;;;;;7.38;4.90;;;;;;;11.94;100.00;93437.16;4935241;29;20043;-67
2023/07/28 02:42:10;;;;;;;9.20;5.10;;;;;;;11.82;100.00;93440.63;4936100;29;20047;-67
2023/07/28 02:44:37;;;;;;;8.50;4.53;;;;;;;11.90;100.00;93442.00;4939122;29;20069;-66
2023/07/28 02:47:04;;;;;;;9.23;4.43;;;;;;;11.91;100.00;93440.81;4940335;29;20062;-66
2023/07/28 02:49:30;;;;;;;7.40;4.82;;;;;;;11.90;100.00;93450.25;4939381;29;20047;-66
2023/07/28 02:51:57;;;;;;;11.02;6.70;;;;;;;11.88;100.00;93460.13;4937075;29;20043;-67
2023/07/28 02:54:25;;;;;;;8.32;5.65;;;;;;;11.96;100.00;93453.25;4931345;29;20067;-67
2023/07/28 02:56:52;;;;;;;8.18;5.20;;;;;;;12.02;100.00;93453.47;4937791;29;20044;-67
2023/07/28 02:59:19;;;;;;;8.27;5.40;;;;;;;12.05;100.00;93458.84;4939273;28;20040;-66
2023/07/28 03:01:46;;;;;;;8.35;5.25;;;;;;;11.97;100.00;93450.06;4914544;29;20055;-67
2023/07/28 03:04:12;;;;;;;9.05;5.30;;;;;;;11.96;100.00;93459.50;4939667;29;20052;-66
2023/07/28 03:06:39;;;;;;;7.03;4.82;;;;;;;11.99;100.00;93453.16;4938787;29;20043;-66
2023/07/28 03:09:06;;;;;;;7.82;5.07;;;;;;;12.10;100.00;93457.56;4931547;29;20121;-66
2023/07/28 03:11:33;;;;;;;9.10;5.07;;;;;;;12.15;100.00;93457.00;4938392;29;20357;-66
2023/07/28 03:13:59;;;;;;;8.95;5.32;;;;;;;12.01;100.00;93455.44;4930301;29;20406;-67
2023/07/28 03:16:26;;;;;;;8.75;5.60;;;;;;;12.02;100.00;93468.00;4938689;29;20055;-66
2023/07/28 03:18:53;;;;;;;9.88;5.63;;;;;;;12.05;100.00;93467.09;4926054;29;20395;-66
2023/07/28 03:21:20;;;;;;;8.65;5.70;;;;;;;11.97;100.00;93465.75;4924544;28;20051;-67
2023/07/28 03:23:46;;;;;;;9.33;5.43;;;;;;;12.04;100.00;93456.56;4935047;29;20408;-66
2023/07/28 03:26:13;;;;;;;10.15;5.40;;;;;;;12.00;100.00;93462.16;4951131;28;20086;-66
2023/07/28 03:28:40;;;;;;;9.02;5.60;;;;;;;12.00;100.00;93473.16;4932292;29;20052;-67
2023/07/28 03:31:07;;;;;;;7.20;5.30;;;;;;;12.02;100.00;93461.72;4932739;29;20048;-65
2023/07/28 03:33:33;;;;;;;7.47;4.97;;;;;;;12.05;100.00;93475.34;4938152;29;20412;-66
2023/07/28 03:36:00;;;;;;;9.50;5.20;;;;;;;11.98;100.00;93468.09;4936670;29;20416;-66
2023/07/28 03:38:27;;;;;;;8.80;5.40;;;;;;;11.96;100.00;93476.00;4933844;29;20695;-67
2023/07/28 03:40:54;;;;;;;9.55;5.50;;;;;;;11.95;100.00;93476.44;4936796;29;20382;-67
2023/07/28 03:43:21;;;;;;;7.93;5.20;;;;;;;11.90;100.00;93477.75;4947038;29;20062;-66
2023/07/28 03:45:48;;;;;;;8.90;5.47;;;;;;;11.70;100.00;93483.34;4937542;29;20043;-66
2023/07/28 03:48:15;;;;;;;8.37;5.47;;;;;;;11.65;100.00;93477.59;4938574;29;20394;-67
2023/07/28 03:50:41;;;;;;;9.93;5.40;;;;;;;11.62;100.00;93479.25;4931789;29;20051;-66
2023/07/28 03:53:08;;;;;;;10.85;5.78;;;;;;;11.65;100.00;93474.84;4943093;29;20062;-66
2023/07/28 03:55:35;;;;;;;9.65;5.53;;;;;;;11.71;100.00;93473.13;4938310;29;20073;-67
2023/07/28 03:58:02;;;;;;;95.65;56.58;;;;;;;11.79;100.00;93475.25;4936350;28;20059;-66
2023/07/28 04:00:30;;;;;;;10.57;7.27;;;;;;;11.83;100.00;93479.88;4933436;29;20130;-66
2023/07/28 04:02:56;;;;;;;10.07;6.47;;;;;;;11.88;100.00;93466.38;4935951;29;20326;-66
2023/07/28 04:05:23;;;;;;;9.57;5.80;;;;;;;11.85;100.00;93463.72;4938366;29;20051;-66
2023/07/28 04:07:50;;;;;;;8.75;5.00;;;;;;;11.88;100.00;93465.63;4937126;29;20662;-66
2023/07/28 04:10:16;;;;;;;9.55;5.15;;;;;;;11.93;100.00;93459.59;4937909;29;20114;-68
2023/07/28 04:12:43;;;;;;;8.33;5.20;;;;;;;11.96;100.00;93469.75;4934137;29;20053;-66
2023/07/28 04:15:10;;;;;;;10.82;5.18;;;;;;;11.94;100.00;93474.91;4934531;29;20062;-66
2023/07/28 04:17:37;;;;;;;8.63;5.75;;;;;;;11.95;100.00;93479.97;4934146;29;20442;-67
2023/07/28 04:20:05;;;;;;;8.82;5.55;;;;;;;11.83;100.00;93480.66;4920415;29;20115;-66
2023/07/28 04:22:32;;;;;;;10.93;5.70;;;;;;;11.64;100.00;93476.84;4932353;29;20047;-66
2023/07/28 04:24:58;;;;;;;8.73;5.23;;;;;;;11.72;100.00;93478.19;4922314;29;20524;-66
2023/07/28 04:27:25;;;;;;;8.50;5.65;;;;;;;11.82;100.00;93478.34;4937991;29;20101;-65
2023/07/28 04:29:52;;;;;;;9.07;5.97;;;;;;;11.87;100.00;93475.84;4934784;29;20059;-65
2023/07/28 04:32:19;;;;;;;11.10;5.57;;;;;;;11.98;100.00;93473.59;4947173;28;20588;-67
2023/07/28 04:34:45;;;;;;;9.02;5.50;;;;;;;12.12;100.00;93474.41;4913280;29;20036;-67
2023/07/28 04:37:12;;;;;;;10.07;5.50;;;;;;;11.89;100.00;93478.97;4929869;29;20062;-66
2023/07/28 04:39:39;;;;;;;11.88;5.65;;;;;;;11.72;100.00;93477.44;4933619;29;20041;-67
2023/07/28 04:42:05;;;;;;;10.27;5.32;;;;;;;11.67;100.00;93472.44;4933078;29;20054;-66
2023/07/28 04:44:32;;;;;;;11.05;5.38;;;;;;;11.77;100.00;93466.69;4933615;29;20452;-66
2023/07/28 04:46:59;;;;;;;12.07;5.80;;;;;;;11.99;100.00;93466.09;4934175;29;20111;-67
2023/07/28 04:49:26;;;;;;;10.73;6.00;;;;;;;12.08;100.00;93469.00;4933415;29;20039;-66
2023/07/28 04:51:52;;;;;;;10.05;5.50;;;;;;;12.19;100.00;93468.69;4933949;29;20052;-66
2023/07/28 04:54:19;;;;;;;9.50;5.47;;;;;;;12.31;100.00;93462.44;4933478;29;20043;-65
2023/07/28 04:56:46;;;;;;;10.10;5.60;;;;;;;12.06;100.00;93467.91;4933468;29;20138;-66
2023/07/28 04:59:13;;;;;;;8.32;5.43;;;;;;;11.78;100.00;93473.72;4933992;29;20044;-67
2023/07/28 05:01:40;;;;;;;11.07;5.63;;;;;;;11.99;100.00;93474.34;4933414;29;20539;-67
2023/07/28 05:04:06;;;;;;;11.10;5.70;;;;;;;12.26;100.00;93473.22;4933703;29;20147;-66
2023/07/28 05:06:33;;;;;;;10.65;5.95;;;;;;;12.48;100.00;93476.91;4920836;29;20048;-66
2023/07/28 05:09:00;;;;;;;9.82;5.82;;;;;;;12.68;100.00;93475.94;4933371;29;20048;-66
2023/07/28 05:11:27;;;;;;;8.35;5.32;;;;;;;12.93;100.00;93475.16;4932796;29;20073;-66
2023/07/28 05:13:53;;;;;;;7.90;5.23;;;;;;;13.23;100.00;93479.31;4933281;29;20126;-66
2023/07/28 05:16:20;;;;;;;10.70;5.50;;;;;;;13.47;100.00;93481.72;4933032;29;20062;-67
2023/07/28 05:18:47;;;;;;;9.15;5.40;;;;;;;13.62;100.00;93485.53;4932989;29;20047;-66
2023/07/28 05:21:13;;;;;;;8.02;5.10;;;;;;;13.46;100.00;93480.16;4933404;29;20497;-66
2023/07/28 05:23:40;;;;;;;9.20;5.45;;;;;;;13.65;100.00;93479.13;4932598;29;20054;-67
2023/07/28 05:26:07;;;;;;;9.50;5.20;;;;;;;13.78;100.00;93471.59;4933536;29;20698;-66
2023/07/28 05:28:35;;;;;;;8.43;5.35;;;;;;;14.06;100.00;93473.78;4938936;29;20047;-66
2023/07/28 05:31:06;;;;;;;7.68;5.10;;;;;;;14.29;100.00;93464.28;4939400;29;20601;-68
2023/07/28 05:33:33;;;;;;;10.68;5.50;;;;;;;14.37;100.00;93465.56;4935930;29;20121;-68
2023/07/28 05:36:04;;;;;;;9.30;6.60;;;;;;;14.10;100.00;93468.91;4937686;29;20044;-69
2023/07/28 05:38:32;;;;;;;8.40;5.47;;;;;;;14.01;100.00;93472.38;4932402;29;20111;-68
2023/07/28 05:41:00;;;;;;;8.40;5.10;;;;;;;13.92;100.00;93475.84;4937819;28;20078;-68
2023/07/28 05:43:27;;;;;;;8.77;5.10;;;;;;;13.75;100.00;93472.47;4940314;29;20047;-69
2023/07/28 05:45:54;;;;;;;9.18;5.30;;;;;;;14.36;100.00;93475.06;4940583;29;20055;-68
2023/07/28 05:48:21;;;;;;;7.35;4.80;;;;;;;15.26;100.00;93472.41;4940524;29;20047;-69
2023/07/28 05:50:48;;;;;;;7.53;5.40;;;;;;;16.12;100.00;93457.00;4934629;29;20047;-70
2023/07/28 05:53:15;;;;;;;7.15;4.70;;;;;;;16.80;100.00;93453.16;4947689;29;20051;-68
2023/07/28 05:55:42;;;;;;;7.88;4.85;;;;;;;17.10;100.00;93456.91;4936116;29;20054;-68
2023/07/28 05:58:09;;;;;;;6.90;5.30;;;;;;;17.00;100.00;93455.41;4914129;29;20052;-68
2023/07/28 06:00:39;;;;;;;8.90;5.50;;;;;;;16.42;100.00;93463.59;4913165;29;20054;-71
2023/07/28 06:03:12;;;;;;;8.03;4.70;;;;;;;16.27;100.00;93459.91;4923362;29;20055;-71
2023/07/28 06:05:42;;;;;;;6.85;4.60;;;;;;;16.31;100.00;93461.28;4930530;29;20048;-67
2023/07/28 06:08:09;;;;;;;8.50;4.20;;;;;;;16.07;100.00;93457.63;4935552;29;20048;-72
2023/07/28 06:10:37;;;;;;;10.18;4.95;;;;;;;15.49;100.00;93471.09;4946179;29;22862;-66
2023/07/28 06:13:03;;;;;;;8.45;5.07;;;;;;;15.28;100.00;93472.72;4914642;29;20052;-65
2023/07/28 06:15:30;;;;;;;8.70;5.23;;;;;;;15.61;100.00;93476.94;4924674;29;20405;-69
2023/07/28 06:17:57;;;;;;;6.72;4.60;;;;;;;15.96;100.00;93474.69;4939732;29;20139;-68
2023/07/28 06:20:24;;;;;;;8.85;5.07;;;;;;;15.55;100.00;93480.31;4939260;29;20143;-70
2023/07/28 06:22:51;;;;;;;11.75;5.05;;;;;;;15.36;100.00;93487.03;4932163;29;20050;-67
2023/07/28 06:25:17;;;;;;;11.05;5.88;;;;;;;15.11;100.00;93483.28;4943454;28;20057;-64
2023/07/28 06:27:44;;;;;;;8.23;5.03;;;;;;;15.37;100.00;93497.63;4939240;29;20052;-68
2023/07/28 06:30:11;;;;;;;8.30;4.82;;;;;;;15.61;100.00;93490.75;4931712;29;20425;-71
2023/07/28 06:32:38;;;;;;;9.35;5.05;;;;;;;15.85;100.00;93485.44;4939614;29;20048;-67
2023/07/28 06:35:07;;;;;;;8.02;5.10;;;;;;;16.04;100.00;93475.16;4939931;29;20047;-69
2023/07/28 06:37:35;;;;;;;9.35;5.00;;;;;;;16.02;100.00;93483.13;4939508;29;20058;-68
2023/07/28 06:40:05;;;;;;;10.73;5.20;;;;;;;16.29;100.00;93490.66;4937857;29;20059;-65
2023/07/28 06:42:34;;;;;;;9.55;5.10;;;;;;;16.48;100.00;93494.16;4932670;29;20048;-66
2023/07/28 06:45:02;;;;;;;7.90;5.10;;;;;;;16.50;100.00;93491.72;4938046;29;20074;-67
2023/07/28 06:47:29;;;;;;;8.68;4.63;;;;;;;16.68;100.00;93502.78;4950522;28;20042;-66
2023/07/28 06:49:55;;;;;;;6.97;4.60;;;;;;;16.80;100.00;93506.56;4937636;29;20404;-67
2023/07/28 06:52:22;;;;;;;12.17;4.60;;;;;;;17.08;100.00;93499.00;4935022;29;20078;-66
2023/07/28 06:54:49;;;;;;;7.70;4.50;;;;;;;17.26;100.00;93511.22;4938977;29;20054;-66
2023/07/28 06:57:16;;;;;;;9.43;4.40;;;;;;;17.19;100.00;93504.03;4960342;28;20704;-66
2023/07/28 06:59:43;;;;;;;9.93;4.70;;;;;;;17.17;100.00;93509.28;4943521;28;20054;-66
2023/07/28 07:02:10;;;;;;;7.95;4.20;;;;;;;17.57;100.00;93506.16;4936316;29;20062;-68
2023/07/28 07:04:37;;;;;;;9.33;4.60;;;;;;;17.85;100.00;93502.44;4933690;29;20039;-66
2023/07/28 07:07:04;;;;;;;7.85;4.63;;;;;;;18.06;100.00;93508.94;4936815;29;20070;-67
2023/07/28 07:09:30;;;;;;;9.27;4.53;;;;;;;18.23;100.00;93501.72;4941339;29;20046;-66
2023/07/28 07:11:57;;;;;;;10.00;4.75;;;;;;;18.09;100.00;93499.66;4899503;29;20055;-66
2023/07/28 07:14:24;;;;;;;7.47;4.30;;;;;;;17.98;100.00;93502.97;4935283;28;20075;-66
2023/07/28 07:16:51;;;;;;;7.23;4.50;;;;;;;17.72;100.00;93513.75;4939576;29;20055;-66
2023/07/28 07:19:17;;;;;;;7.32;4.93;;;;;;;17.84;100.00;93520.34;4939007;29;20055;-67
2023/07/28 07:21:44;;;;;;;6.85;4.65;;;;;;;17.70;100.00;93517.00;4935656;29;20043;-66
2023/07/28 07:24:13;;;;;;;7.97;4.72;;;;;;;17.72;100.00;93522.09;4935470;29;20062;-65
2023/07/28 07:26:40;;;;;;;8.65;4.75;;;;;;;17.67;100.00;93523.50;4948685;28;20046;-65
2023/07/28 07:29:10;;;;;;;6.57;4.37;;;;;;;17.84;100.00;93523.13;4938402;29;20054;-66
2023/07/28 07:31:36;;;;;;;8.43;4.55;;;;;;;17.85;100.00;93517.13;4934571;29;20078;-65
2023/07/28 07:34:04;;;;;;;7.57;4.50;;;;;;;17.73;100.00;93521.63;4936042;29;20052;-66
2023/07/28 07:36:31;;;;;;;6.15;3.75;;;;;;;17.88;100.00;93526.50;4939042;29;20121;-68
2023/07/28 07:38:58;;;;;;;7.47;4.18;;;;;;;18.01;100.00;93521.47;4939136;28;20062;-66
2023/07/28 07:41:25;;;;;;;6.50;4.00;;;;;;;18.14;100.00;93515.66;4938835;29;20054;-68
2023/07/28 07:43:54;;;;;;;6.95;3.80;;;;;;;18.34;100.00;93521.38;4935921;29;20051;-66
2023/07/28 07:46:22;;;;;;;5.53;3.78;;;;;;;18.37;100.00;93525.19;4934054;29;20472;-66
2023/07/28 07:48:49;;;;;;;6.95;4.05;;;;;;;18.40;100.00;93534.63;4937836;29;20055;-67
2023/07/28 07:51:16;;;;;;;6.13;4.10;;;;;;;18.78;100.00;93533.81;4938889;29;20058;-66
2023/07/28 07:53:43;;;;;;;6.27;4.10;;;;;;;18.80;100.00;93519.47;4917677;29;20051;-66
2023/07/28 07:56:10;;;;;;;6.65;3.00;;;;;;;18.97;100.00;93531.63;4938796;29;20047;-67
2023/07/28 07:58:37;;;;;;;6.43;3.33;;;;;;;19.26;100.00;93530.84;4946887;28;20039;-67
2023/07/28 08:01:04;;;;;;;5.63;3.15;;;;;;;19.56;100.00;93522.44;4951273;28;20048;-67
2023/07/28 08:03:36;;;;;;;4.63;3.20;;;;;;;19.80;100.00;93516.75;4938679;29;20385;-66
2023/07/28 08:06:03;;;;;;;5.40;3.00;;;;;;;19.92;100.00;93509.28;4937172;29;20113;-67
2023/07/28 08:08:31;;;;;;;4.68;2.80;;;;;;;20.60;100.00;93524.06;4946563;28;20050;-67
2023/07/28 08:10:57;;;;;;;4.70;2.95;;;;;;;21.11;100.00;93522.53;4934229;29;20043;-68
2023/07/28 08:13:25;;;;;;;3.90;2.60;;;;;;;20.82;100.00;93518.69;4914400;29;20083;-66
2023/07/28 08:15:52;;;;;;;5.72;3.00;;;;;;;21.43;100.00;93517.75;4926979;29;20082;-66
2023/07/28 08:18:19;;;;;;;4.60;2.80;;;;;;;21.64;100.00;93515.59;4938217;29;20048;-67
2023/07/28 08:20:46;;;;;;;4.43;2.65;;;;;;;22.08;100.00;93514.31;4938915;29;20043;-68
2023/07/28 08:23:13;;;;;;;5.75;2.83;;;;;;;23.59;100.00;93515.19;4938246;29;20054;-67
2023/07/28 08:25:40;;;;;;;5.28;2.30;;;;;;;24.96;100.00;93508.66;4937293;29;20050;-68
2023/07/28 08:28:06;;;;;;;4.70;2.70;;;;;;;24.17;100.00;93513.84;4930740;29;20154;-68
2023/07/28 08:30:33;;;;;;;5.00;2.63;;;;;;;24.25;100.00;93514.84;4930673;29;20567;-67
2023/07/28 08:33:00;;;;;;;7.32;3.10;;;;;;;23.89;100.00;93512.63;4930930;29;20054;-67
2023/07/28 08:35:27;;;;;;;4.65;2.85;;;;;;;24.32;100.00;93519.91;4930172;29;20141;-67
2023/07/28 08:37:54;;;;;;;4.28;2.60;;;;;;;23.83;100.00;93508.31;4930550;29;20063;-68
2023/07/28 08:40:21;;;;;;;5.78;2.60;;;;;;;24.05;100.00;93516.69;4930297;29;20040;-67
2023/07/28 08:42:49;;;;;;;4.30;2.40;;;;;;;24.11;99.70;93511.06;4930527;29;20051;-66
2023/07/28 08:45:18;;;;;;;4.60;2.88;;;;;;;23.45;100.00;93519.78;4930280;29;20043;-66
2023/07/28 08:47:45;;;;;;;4.70;2.65;;;;;;;24.04;94.87;93520.75;4931236;29;20409;-67
2023/07/28 08:50:12;;;;;;;5.85;2.92;;;;;;;23.96;94.16;93522.53;4930723;29;20055;-67
2023/07/28 08:52:39;;;;;;;4.20;2.53;;;;;;;24.41;93.95;93518.84;4930460;29;20438;-66
2023/07/28 08:55:06;;;;;;;4.20;2.87;;;;;;;24.11;95.17;93520.22;4930291;29;20461;-67
2023/07/28 08:57:33;;;;;;;4.72;2.83;;;;;;;25.39;86.23;93519.34;4917471;29;20135;-67
2023/07/28 09:00:11;;;;;;;4.32;2.60;;;;;;;25.71;81.84;93516.00;4930585;29;20428;-67
2023/07/28 09:02:37;;;;;;;4.28;2.45;;;;;;;26.80;80.23;93526.41;4932088;29;20043;-67
2023/07/28 09:05:05;;;;;;;4.97;2.75;;;;;;;27.84;75.55;93528.69;4935949;29;20060;-68
2023/07/28 09:07:39;;;;;;;3.77;2.60;;;;;;;26.89;74.87;93533.69;4932427;29;20098;-66
2023/07/28 09:10:06;;;;;;;3.80;2.50;;;;;;;26.59;74.28;93519.75;4935069;29;20082;-68
2023/07/28 09:12:33;;;;;;;4.32;2.70;;;;;;;24.62;88.79;93528.47;4930923;29;20094;-67
2023/07/28 09:14:59;;;;;;;4.45;2.78;;;;;;;24.44;91.79;93529.78;4927163;29;20412;-67
2023/07/28 09:17:31;;;;;;;5.15;2.70;;;;;;;24.06;97.19;93525.84;4937778;29;20044;-67
2023/07/28 09:19:58;;;;;;;4.10;2.60;;;;;;;23.59;97.06;93525.66;4935959;29;20109;-70
2023/07/28 09:22:25;;;;;;;3.60;2.70;;;;;;;23.54;98.20;93527.16;4946792;28;20554;-67
2023/07/28 09:24:53;;;;;;;4.95;2.80;;;;;;;24.48;91.37;93532.34;4935273;28;20079;-70
2023/07/28 09:27:25;;;;;;;4.60;2.78;;;;;;;24.36;92.12;93534.41;4941242;28;20056;-66
2023/07/28 09:29:57;;;;;;;3.85;2.60;;;;;;;24.50;92.41;93536.16;4948221;28;20402;-69
2023/07/28 09:32:30;;;;;;;4.10;2.43;;;;;;;27.20;76.20;93526.59;4949157;29;20046;-68
2023/07/28 09:35:08;;;;;;;3.55;2.50;;;;;;;26.86;75.55;93529.09;4952470;29;20051;-70
2023/07/28 09:37:40;;;;;;;4.97;2.33;;;;;;;25.18;82.10;93526.63;4936521;29;20135;-68
2023/07/28 09:40:13;;;;;;;4.75;2.50;;;;;;;23.95;94.39;93523.84;4937940;29;20051;-67
2023/07/28 09:42:49;;;;;;;5.38;2.80;;;;;;;24.55;89.10;93519.81;4941149;29;20405;-67
2023/07/28 09:45:21;;;;;;;4.00;2.70;;;;;;;25.20;85.76;93524.06;4940757;29;20048;-67
2023/07/28 09:48:09;;;;;;;4.40;2.40;;;;;;;26.42;78.64;93526.31;4912477;29;20054;-67
2023/07/28 09:50:38;;;;;;;3.80;2.70;;;;;;;26.47;72.47;93528.28;4932864;29;20618;-67
2023/07/28 09:53:09;;;;;;;3.83;2.50;;;;;;;26.83;71.03;93519.69;4933510;29;20416;-69
2023/07/28 09:55:39;;;;;;;3.97;2.30;;;;;;;26.67;69.77;93527.06;4947565;29;20040;-67
2023/07/28 09:58:09;;;;;;;3.50;2.30;;;;;;;27.03;71.00;93529.66;4933417;29;20052;-67
2023/07/28 10:00:37;;;;;;;4.47;2.40;;;;;;;27.35;71.51;93526.16;4932934;29;20056;-68
2023/07/28 10:03:05;;;;;;;5.30;2.60;;;;;;;26.84;69.46;93526.84;4947884;29;20058;-67
2023/07/28 10:05:34;;;;;;;3.58;2.30;;;;;;;27.21;64.60;93530.19;4932527;29;20445;-67
2023/07/28 10:08:03;;;;;;;4.85;2.40;;;;;;;26.35;64.66;93532.53;4933419;29;20070;-67
2023/07/28 10:10:30;;;;;;;5.23;2.40;;;;;;;26.80;61.89;93522.78;4932649;29;20405;-67
2023/07/28 10:12:58;;;;;;;3.83;2.50;;;;;;;27.50;60.81;93539.75;4916328;29;20059;-68
2023/07/28 10:15:32;;;;;;;4.57;2.35;;;;;;;26.42;63.06;93534.75;4921323;29;20047;-65
2023/07/28 10:17:59;;;;;;;3.70;2.20;;;;;;;26.82;64.02;93535.06;4932260;28;20370;-67
2023/07/28 10:20:38;;;;;;;4.38;2.40;;;;;;;28.86;60.32;93538.09;4932405;29;20047;-67
2023/07/28 10:23:07;;;;;;;3.73;2.30;;;;;;;29.31;53.77;93542.78;4932699;29;20051;-68
2023/07/28 10:25:38;;;;;;;3.75;2.40;;;;;;;28.71;50.43;93535.06;4932097;29;20067;-69
2023/07/28 10:28:05;;;;;;;4.43;2.50;;;;;;;28.50;51.43;93530.09;4932293;28;20044;-67
2023/07/28 10:30:37;;;;;;;3.58;2.45;;;;;;;29.62;48.01;93538.22;4932471;29;20059;-67
2023/07/28 10:33:04;;;;;;;3.63;2.40;;;;;;;27.97;51.63;93536.44;4932674;29;20052;-67
2023/07/28 10:35:33;;;;;;;4.13;2.33;;;;;;;30.17;46.88;93528.91;4932320;29;20137;-66
2023/07/28 10:38:31;;;;;;;4.05;2.22;;;;;;;29.49;47.54;93541.09;4931935;29;20083;-66
2023/07/28 10:41:18;;;;;;;4.50;2.38;;;;;;;28.59;49.76;93537.38;4937687;29;20118;-70
2023/07/28 10:43:46;;;;;;;3.53;2.20;;;;;;;27.47;53.85;93538.75;4935486;29;20051;-66
2023/07/28 10:46:17;;;;;;;3.33;2.53;;;;;;;26.72;57.98;93528.25;4936007;29;20063;-66
2023/07/28 10:48:46;;;;;;;4.00;2.40;;;;;;;26.93;59.88;93533.38;4938236;29;20252;-66
2023/07/28 10:51:25;;;;;;;3.42;2.40;;;;;;;27.81;57.62;93537.44;4932210;29;20390;-69
2023/07/28 10:53:55;;;;;;;3.42;2.30;;;;;;;26.49;57.80;93533.38;4943808;28;20080;-68
2023/07/28 10:56:23;;;;;;;3.75;2.53;;;;;;;26.36;59.14;93522.81;4934775;29;20051;-67
2023/07/28 10:59:01;;;;;;;3.80;2.35;;;;;;;25.92;61.08;93524.81;4939106;28;20047;-66
2023/07/28 11:01:35;;;;;;;3.63;2.33;;;;;;;25.86;62.25;93533.25;4939990;29;20078;-66
2023/07/28 11:04:16;;;;;;;4.57;2.30;;;;;;;26.33;58.56;93529.47;4945999;29;20054;-66
2023/07/28 11:06:48;;;;;;;3.80;2.50;;;;;;;25.53;60.03;93528.69;4946575;29;20686;-66
2023/07/28 11:09:19;;;;;;;4.07;2.30;;;;;;;25.94;60.05;93527.06;4939972;29;20404;-66
2023/07/28 11:11:47;;;;;;;4.65;2.20;;;;;;;26.37;59.49;93538.38;4936493;29;20662;-69
2023/07/28 11:14:16;;;;;;;3.57;2.23;;;;;;;26.13;56.42;93532.78;4927190;29;20043;-68
2023/07/28 11:16:52;;;;;;;6.10;2.30;;;;;;;26.64;56.04;93527.34;4950037;28;20627;-68
2023/07/28 11:19:24;;;;;;;4.03;2.30;;;;;;;27.12;54.06;93533.38;4950647;29;20059;-69
2023/07/28 11:21:53;;;;;;;3.83;2.22;;;;;;;26.86;54.72;93546.00;4951496;29;20043;-68
2023/07/28 11:24:20;;;;;;;3.70;2.35;;;;;;;26.25;55.52;93543.38;4950556;29;20043;-67
2023/07/28 11:26:48;;;;;;;4.40;2.57;;;;;;;26.18;54.82;93543.97;4957877;28;20047;-67
2023/07/28 11:29:16;;;;;;;4.10;2.30;;;;;;;26.94;54.10;93546.91;4956919;28;20055;-66
2023/07/28 11:31:43;;;;;;;3.85;2.30;;;;;;;26.65;55.22;93535.25;4949930;29;20705;-67